Time;durP1;ratioP1;P1;durP2;ratioP2;P2;SDS_P1;SDS_P2;PMS_P1;PMS_P2;Temp;Humidity;BMP_temperature;BMP_pressure;BME280_temperature;BME280_humidity;BME280_pressure;Samples;Min_cycle;Max_cycle;Signal;HPM_P1;HPM_P2
2023/10/02 00:01:17;;;;;;;11.33;7.70;;;16.10;99.90;;;;;;5007733;28;20219;-71
2023/10/02 00:03:48;;;;;;;11.77;8.10;;;16.20;99.90;;;;;;4994905;28;20513;-71
2023/10/02 00:06:17;;;;;;;10.70;7.77;;;16.00;99.90;;;;;;4995095;28;20483;-72
2023/10/02 00:08:43;;;;;;;11.37;8.70;;;16.00;99.90;;;;;;4994841;28;20833;-71
2023/10/02 00:14:19;;;;;;;12.03;7.53;;;16.00;99.90;;;;;;5014643;28;20913;-72
2023/10/02 00:16:58;;;;;;;10.70;7.70;;;16.00;99.90;;;;;;5014690;28;20436;-71
2023/10/02 00:19:40;;;;;;;11.80;8.10;;;15.90;99.90;;;;;;5013914;28;20458;-70
2023/10/02 00:22:34;;;;;;;12.17;7.80;;;15.90;99.90;;;;;;5000468;28;20759;-70
2023/10/02 00:25:01;;;;;;;15.50;8.87;;;15.70;99.90;;;;;;4994129;28;20448;-71
2023/10/02 00:27:28;;;;;;;16.80;8.50;;;15.80;99.90;;;;;;4994412;28;20763;-70
2023/10/02 00:29:58;;;;;;;12.43;8.37;;;15.80;99.90;;;;;;4993995;28;20942;-70
2023/10/02 00:32:34;;;;;;;11.57;7.80;;;15.80;99.90;;;;;;5010260;28;20568;-71
2023/10/02 00:35:02;;;;;;;12.33;8.30;;;15.90;99.90;;;;;;5014047;28;20378;-70
2023/10/02 00:37:51;;;;;;;11.57;8.00;;;16.00;99.90;;;;;;5013809;28;20452;-70
2023/10/02 00:40:22;;;;;;;11.93;7.87;;;16.10;99.90;;;;;;5013312;28;20994;-70
2023/10/02 00:45:58;;;;;;;11.17;7.60;;;16.10;99.90;;;;;;4994323;28;20390;-71
2023/10/02 00:48:33;;;;;;;12.77;8.43;;;16.00;99.90;;;;;;4993831;28;20434;-71
2023/10/02 00:51:05;;;;;;;14.20;7.87;;;16.00;99.90;;;;;;4998394;28;20406;-70
2023/10/02 00:53:45;;;;;;;11.70;8.70;;;15.90;99.90;;;;;;5013787;28;20374;-70
2023/10/02 00:56:24;;;;;;;12.13;8.17;;;15.80;99.90;;;;;;5013351;28;20389;-71
2023/10/02 00:58:55;;;;;;;15.10;8.10;;;15.80;99.90;;;;;;5013098;28;20428;-70
2023/10/02 01:01:22;;;;;;;15.03;8.97;;;15.80;99.90;;;;;;5005886;28;20402;-72
2023/10/02 01:06:35;;;;;;;14.70;8.13;;;15.60;99.90;;;;;;4994190;28;20410;-71
2023/10/02 01:09:01;;;;;;;12.00;7.60;;;15.60;99.90;;;;;;4993961;28;20899;-70
2023/10/02 01:11:28;;;;;;;10.47;7.57;;;15.70;99.90;;;;;;5000978;28;20460;-71
2023/10/02 01:13:54;;;;;;;11.83;7.70;;;15.70;99.90;;;;;;5010242;28;20750;-71
2023/10/02 01:16:20;;;;;;;11.43;8.80;;;15.70;99.90;;;;;;4974527;28;20409;-71
2023/10/02 01:18:48;;;;;;;10.70;7.90;;;15.60;99.90;;;;;;4974098;28;20470;-71
2023/10/02 01:21:18;;;;;;;12.87;8.70;;;15.60;99.90;;;;;;4986467;28;20577;-71
2023/10/02 01:26:41;;;;;;;13.33;8.30;;;15.60;99.90;;;;;;5013307;28;20464;-71
2023/10/02 01:29:10;;;;;;;12.77;9.57;;;15.60;99.90;;;;;;5005432;28;20569;-71
2023/10/02 01:31:48;;;;;;;11.53;7.47;;;15.50;99.90;;;;;;5001507;28;20966;-71
2023/10/02 01:34:33;;;;;;;12.10;8.10;;;15.40;99.90;;;;;;5012900;28;20470;-70
2023/10/02 01:37:00;;;;;;;13.20;8.70;;;15.40;99.90;;;;;;5013222;28;20384;-70
2023/10/02 01:39:26;;;;;;;11.27;7.77;;;15.40;99.90;;;;;;5013206;28;20423;-71
2023/10/02 01:41:54;;;;;;;15.67;9.23;;;15.40;99.90;;;;;;5002186;28;20462;-71
2023/10/02 01:44:24;;;;;;;13.70;9.60;;;15.30;99.90;;;;;;4993183;28;20175;-70
2023/10/02 01:46:51;;;;;;;20.00;9.40;;;15.30;99.90;;;;;;4993628;28;20786;-70
2023/10/02 01:49:26;;;;;;;18.00;8.60;;;15.30;99.90;;;;;;4992916;28;20461;-70
2023/10/02 01:51:55;;;;;;;13.13;8.70;;;15.20;99.90;;;;;;5003743;28;20541;-70
2023/10/02 01:54:22;;;;;;;12.97;8.30;;;15.20;99.90;;;;;;5012735;28;20432;-71
2023/10/02 01:56:49;;;;;;;11.80;8.63;;;15.20;99.90;;;;;;5012873;28;20436;-71
2023/10/02 01:59:18;;;;;;;12.20;8.70;;;15.30;99.90;;;;;;5013011;28;20434;-71
2023/10/02 02:01:51;;;;;;;12.20;7.97;;;15.30;99.90;;;;;;5003105;28;20423;-72
2023/10/02 02:04:23;;;;;;;13.37;8.80;;;15.20;99.90;;;;;;4993152;28;20855;-72
2023/10/02 02:06:53;;;;;;;13.10;8.13;;;15.20;99.90;;;;;;4993273;28;20407;-71
2023/10/02 02:09:24;;;;;;;13.00;9.50;;;15.30;99.90;;;;;;4993450;28;20448;-71
2023/10/02 02:12:10;;;;;;;13.87;8.70;;;15.30;99.90;;;;;;5002952;28;20475;-71
2023/10/02 02:14:49;;;;;;;10.47;7.43;;;15.20;99.90;;;;;;5011202;28;20415;-71
2023/10/02 02:17:23;;;;;;;14.77;9.80;;;15.20;99.90;;;;;;5012699;28;20407;-71
2023/10/02 02:19:49;;;;;;;11.43;8.97;;;15.20;99.90;;;;;;5012931;28;20475;-69
2023/10/02 02:22:23;;;;;;;14.97;8.83;;;15.40;99.90;;;;;;5000274;28;20490;-70
2023/10/02 02:24:50;;;;;;;10.70;7.90;;;15.50;99.90;;;;;;4996877;28;20159;-69
2023/10/02 02:27:19;;;;;;;11.10;7.60;;;15.50;99.90;;;;;;4996603;28;20859;-69
2023/10/02 02:29:49;;;;;;;12.57;8.13;;;15.40;99.90;;;;;;4996674;28;20468;-69
2023/10/02 02:32:19;;;;;;;15.00;8.13;;;15.40;99.90;;;;;;5009557;28;20440;-69
2023/10/02 02:34:46;;;;;;;10.90;7.60;;;15.30;99.90;;;;;;5016088;28;20402;-69
2023/10/02 02:37:13;;;;;;;12.40;8.40;;;15.30;99.90;;;;;;5016275;28;20461;-70
2023/10/02 02:39:39;;;;;;;13.70;9.40;;;15.30;99.90;;;;;;5015931;28;20426;-69
2023/10/02 02:42:18;;;;;;;12.83;8.20;;;15.40;99.90;;;;;;5004343;28;20781;-69
2023/10/02 02:44:50;;;;;;;11.47;8.83;;;15.40;99.90;;;;;;4996717;28;20392;-69
2023/10/02 02:47:23;;;;;;;13.50;8.47;;;15.30;99.90;;;;;;4994924;28;20419;-70
2023/10/02 02:49:51;;;;;;;12.67;8.80;;;15.30;99.90;;;;;;4996154;28;20469;-69
2023/10/02 02:52:28;;;;;;;14.43;8.63;;;15.40;99.90;;;;;;5009448;28;20449;-69
2023/10/02 02:54:59;;;;;;;11.10;8.30;;;15.30;99.90;;;;;;5015845;28;20381;-69
2023/10/02 02:57:26;;;;;;;13.20;8.70;;;15.20;99.90;;;;;;5015710;28;20417;-70
2023/10/02 03:02:46;;;;;;;10.50;8.03;;;15.20;99.90;;;;;;4999684;28;20462;-69
2023/10/02 03:05:16;;;;;;;11.37;7.60;;;15.10;99.90;;;;;;4996785;28;21065;-69
2023/10/02 03:07:44;;;;;;;13.87;9.57;;;15.10;99.90;;;;;;4996634;28;20472;-69
2023/10/02 03:10:11;;;;;;;14.07;9.07;;;15.10;99.90;;;;;;4998364;28;20461;-70
2023/10/02 03:12:47;;;;;;;13.37;8.90;;;15.10;99.90;;;;;;5011630;28;20988;-69
2023/10/02 03:15:18;;;;;;;13.70;8.87;;;15.10;99.90;;;;;;5014357;28;20390;-69
2023/10/02 03:17:44;;;;;;;13.97;9.90;;;15.10;99.90;;;;;;5015284;28;20406;-69
2023/10/02 03:20:22;;;;;;;13.93;8.33;;;15.10;99.90;;;;;;5015691;28;20425;-69
2023/10/02 03:22:53;;;;;;;14.37;9.40;;;15.10;99.90;;;;;;4999133;28;20829;-69
2023/10/02 03:25:40;;;;;;;13.83;8.97;;;15.10;99.90;;;;;;4996010;28;20397;-70
2023/10/02 03:28:16;;;;;;;15.07;8.97;;;15.20;99.90;;;;;;4995626;28;20393;-70
2023/10/02 03:30:47;;;;;;;12.37;8.00;;;15.20;99.90;;;;;;4995961;28;20460;-69
2023/10/02 03:33:23;;;;;;;13.00;9.50;;;15.20;99.90;;;;;;4981865;28;20453;-70
2023/10/02 03:36:07;;;;;;;13.60;8.90;;;15.20;99.90;;;;;;4994961;28;20386;-69
2023/10/02 03:38:35;;;;;;;11.10;7.90;;;15.30;99.90;;;;;;4995680;28;20498;-68
2023/10/02 03:41:02;;;;;;;14.37;8.73;;;15.20;99.90;;;;;;4997833;28;20407;-69
2023/10/02 03:43:50;;;;;;;13.73;9.00;;;15.20;99.90;;;;;;5014698;28;20401;-69
2023/10/02 03:46:22;;;;;;;11.33;7.60;;;15.20;99.90;;;;;;5014600;28;20410;-69
2023/10/02 03:48:58;;;;;;;11.37;8.57;;;15.10;99.90;;;;;;5014507;28;20483;-69
2023/10/02 03:51:40;;;;;;;12.00;8.93;;;15.10;99.90;;;;;;5009360;28;20892;-68
2023/10/02 03:54:23;;;;;;;13.57;8.77;;;15.10;99.90;;;;;;4995135;28;20387;-69
2023/10/02 03:56:50;;;;;;;11.57;8.87;;;15.10;99.90;;;;;;4995688;28;20897;-70
2023/10/02 03:59:27;;;;;;;16.90;10.20;;;15.10;99.90;;;;;;4995119;28;20512;-69
2023/10/02 04:01:57;;;;;;;11.00;8.03;;;15.00;99.90;;;;;;5003712;28;20452;-68
2023/10/02 04:04:24;;;;;;;12.93;8.70;;;15.00;99.90;;;;;;5014384;28;20564;-69
2023/10/02 04:06:53;;;;;;;11.80;9.13;;;15.00;99.90;;;;;;5014447;28;20470;-69
2023/10/02 04:09:23;;;;;;;13.07;9.17;;;15.00;99.90;;;;;;5013939;28;20504;-69
2023/10/02 04:11:54;;;;;;;9.97;7.73;;;14.90;99.90;;;;;;5005937;28;20497;-68
2023/10/02 04:14:38;;;;;;;13.57;8.50;;;14.90;99.90;;;;;;4994608;28;20380;-70
2023/10/02 04:19:51;;;;;;;13.43;9.33;;;14.90;99.90;;;;;;4994180;28;20476;-69
2023/10/02 04:22:27;;;;;;;12.53;8.87;;;14.80;99.90;;;;;;5004733;28;20414;-69
2023/10/02 04:25:06;;;;;;;14.83;9.07;;;14.70;99.90;;;;;;5014085;28;20540;-69
2023/10/02 04:32:35;;;;;;;15.10;11.07;;;14.70;99.90;;;;;;4999787;28;20455;-68
2023/10/02 04:35:03;;;;;;;12.40;9.70;;;14.60;99.90;;;;;;4994095;28;20408;-69
2023/10/02 04:37:31;;;;;;;16.77;10.13;;;14.50;99.90;;;;;;4994018;28;20651;-69
2023/10/02 04:45:20;;;;;;;15.03;10.00;;;14.40;99.90;;;;;;5013091;28;20165;-68
2023/10/02 04:47:48;;;;;;;13.10;9.47;;;14.50;99.90;;;;;;5013847;28;20484;-69
2023/10/02 04:52:57;;;;;;;14.73;9.80;;;14.70;99.90;;;;;;4999110;28;20486;-69
2023/10/02 04:55:25;;;;;;;12.10;8.97;;;14.70;99.90;;;;;;4994374;28;20167;-69
2023/10/02 04:57:56;;;;;;;12.60;8.80;;;14.70;99.90;;;;;;4994129;28;20408;-69
2023/10/02 05:00:34;;;;;;;16.47;9.70;;;14.80;99.90;;;;;;4994169;28;20396;-69
2023/10/02 05:03:25;;;;;;;18.60;10.70;;;14.80;99.90;;;;;;5010953;28;20807;-68
2023/10/02 05:05:54;;;;;;;13.43;9.50;;;14.70;99.90;;;;;;5013541;28;20406;-68
2023/10/02 05:08:34;;;;;;;12.90;9.27;;;14.60;99.90;;;;;;5009919;28;20871;-68
2023/10/02 05:11:07;;;;;;;13.90;9.70;;;14.50;99.90;;;;;;5012355;28;20428;-69
2023/10/02 05:16:33;;;;;;;11.57;9.17;;;14.70;99.90;;;;;;4993717;28;20401;-69
2023/10/02 05:19:01;;;;;;;12.57;9.27;;;14.80;99.90;;;;;;4993551;28;20451;-68
2023/10/02 05:21:36;;;;;;;16.33;10.80;;;14.80;99.90;;;;;;4997662;28;20435;-69
2023/10/02 05:24:11;;;;;;;13.50;9.63;;;14.80;99.90;;;;;;5013195;28;20449;-69
2023/10/02 05:26:39;;;;;;;15.57;9.70;;;14.70;99.90;;;;;;5013162;28;20405;-68
2023/10/02 05:29:06;;;;;;;14.37;10.40;;;14.60;99.90;;;;;;5012754;28;20424;-69
2023/10/02 05:31:40;;;;;;;18.30;10.90;;;14.50;99.90;;;;;;5007010;28;20452;-69
2023/10/02 05:34:13;;;;;;;16.27;10.80;;;14.60;99.90;;;;;;5008199;28;20391;-69
2023/10/02 05:36:55;;;;;;;15.30;10.10;;;14.60;99.90;;;;;;5012655;28;20901;-69
2023/10/02 05:39:39;;;;;;;14.70;9.93;;;14.60;99.90;;;;;;4994186;28;20431;-69
2023/10/02 05:42:13;;;;;;;14.40;9.60;;;14.50;99.90;;;;;;5002376;28;20417;-69
2023/10/02 05:44:48;;;;;;;14.80;9.27;;;14.50;99.90;;;;;;5012944;28;20394;-69
2023/10/02 05:47:17;;;;;;;12.63;9.23;;;14.50;99.90;;;;;;5012555;28;20396;-69
2023/10/02 05:49:49;;;;;;;14.67;10.23;;;14.50;99.90;;;;;;5012325;28;20860;-68
2023/10/02 05:52:18;;;;;;;15.70;8.73;;;14.50;99.90;;;;;;5002347;28;20528;-68
2023/10/02 05:54:53;;;;;;;16.00;10.93;;;14.60;99.90;;;;;;4992684;28;20882;-69
2023/10/02 05:57:19;;;;;;;16.87;12.70;;;14.50;99.90;;;;;;4993419;28;20393;-69
2023/10/02 05:59:54;;;;;;;14.87;10.67;;;14.50;99.90;;;;;;4992589;28;20969;-69
2023/10/02 06:02:22;;;;;;;15.20;9.60;;;14.50;99.90;;;;;;5003490;28;20396;-69
2023/10/02 06:05:07;;;;;;;15.80;11.37;;;14.50;99.90;;;;;;5012449;28;20410;-69
2023/10/02 06:07:45;;;;;;;13.53;11.33;;;14.40;99.90;;;;;;5012866;28;20893;-68
2023/10/02 06:10:25;;;;;;;14.80;10.10;;;14.50;99.90;;;;;;5012856;28;20485;-69
2023/10/02 06:13:02;;;;;;;15.60;9.77;;;14.50;99.90;;;;;;4997408;28;20478;-69
2023/10/02 06:15:48;;;;;;;14.67;10.57;;;14.50;99.90;;;;;;4993034;28;20467;-70
2023/10/02 06:18:27;;;;;;;14.90;10.03;;;14.60;99.90;;;;;;4992520;28;20480;-71
2023/10/02 06:21:02;;;;;;;13.83;9.80;;;14.60;99.90;;;;;;4993016;28;20729;-69
2023/10/02 06:23:30;;;;;;;15.13;10.20;;;14.60;99.90;;;;;;4973596;28;20390;-69
2023/10/02 06:25:59;;;;;;;13.40;9.60;;;14.70;99.90;;;;;;4973229;28;20927;-70
2023/10/02 06:28:27;;;;;;;13.50;9.43;;;14.70;99.90;;;;;;4973217;28;20443;-70
2023/10/02 06:30:54;;;;;;;15.07;9.70;;;14.90;99.90;;;;;;4971750;28;20419;-70
2023/10/02 06:33:21;;;;;;;14.60;8.87;;;15.00;99.90;;;;;;5009725;28;20449;-70
2023/10/02 06:35:56;;;;;;;15.20;10.20;;;15.10;99.90;;;;;;5010712;28;20858;-70
2023/10/02 06:38:25;;;;;;;15.70;10.90;;;15.10;99.90;;;;;;5012220;28;20520;-70
2023/10/02 06:40:57;;;;;;;13.37;9.57;;;15.20;99.90;;;;;;5012317;28;20759;-70
2023/10/02 06:43:30;;;;;;;12.83;8.93;;;15.30;99.90;;;;;;4993549;28;20489;-70
2023/10/02 06:46:07;;;;;;;11.70;8.70;;;15.40;99.90;;;;;;4992834;28;20392;-70
2023/10/02 06:48:39;;;;;;;13.60;9.40;;;15.50;99.90;;;;;;4992528;28;20475;-71
2023/10/02 06:51:05;;;;;;;14.17;9.50;;;15.60;99.90;;;;;;4992618;28;20843;-71
2023/10/02 06:53:34;;;;;;;13.40;9.57;;;15.70;99.90;;;;;;5012146;28;20417;-71
2023/10/02 06:56:04;;;;;;;13.40;8.80;;;15.90;99.90;;;;;;5011849;28;20409;-71
2023/10/02 06:58:31;;;;;;;14.80;9.50;;;16.00;99.90;;;;;;5012280;28;20438;-69
2023/10/02 07:01:01;;;;;;;14.30;9.60;;;16.00;99.90;;;;;;5010953;28;20403;-71
2023/10/02 07:03:27;;;;;;;15.23;9.83;;;16.20;99.90;;;;;;4993120;28;20404;-70
2023/10/02 07:05:53;;;;;;;13.90;10.07;;;16.20;99.90;;;;;;4991970;28;20404;-70
2023/10/02 07:08:21;;;;;;;12.60;8.80;;;16.30;99.90;;;;;;4993449;28;20559;-69
2023/10/02 07:10:48;;;;;;;12.63;9.37;;;16.40;99.90;;;;;;4995623;28;20157;-70
2023/10/02 07:13:23;;;;;;;14.33;9.43;;;16.50;99.90;;;;;;5012662;28;20457;-69
2023/10/02 07:15:55;;;;;;;16.23;9.87;;;16.70;99.90;;;;;;5015259;28;20406;-69
2023/10/02 07:18:37;;;;;;;15.20;9.93;;;16.70;99.90;;;;;;5015157;28;20430;-71
2023/10/02 07:21:09;;;;;;;14.37;9.77;;;16.90;99.90;;;;;;5015392;28;20403;-70
2023/10/02 07:23:37;;;;;;;15.23;9.60;;;17.00;99.90;;;;;;4975948;28;20741;-72
2023/10/02 07:26:45;;;;;;;13.13;9.23;;;17.10;99.90;;;;;;4975906;28;20458;-70
2023/10/02 07:29:06;;;;;;;13.90;9.70;;;17.20;99.90;;;;;;4975632;28;20435;-69
2023/10/02 07:31:32;;;;;;;15.57;10.80;;;17.20;99.90;;;;;;4981797;28;20447;-70
2023/10/02 07:33:58;;;;;;;16.27;10.80;;;17.30;99.90;;;;;;4996851;28;20168;-70
2023/10/02 07:36:26;;;;;;;13.63;9.90;;;17.40;99.90;;;;;;4995365;28;20196;-70
2023/10/02 07:38:53;;;;;;;15.50;10.77;;;17.50;99.90;;;;;;4994082;28;20275;-70
2023/10/02 07:41:25;;;;;;;14.13;9.10;;;17.70;99.90;;;;;;4996445;28;20515;-71
2023/10/02 07:43:55;;;;;;;15.40;10.27;;;17.80;99.90;;;;;;5014812;28;20442;-70
2023/10/02 07:46:21;;;;;;;13.80;10.17;;;17.90;99.90;;;;;;5006332;28;20459;-70
2023/10/02 07:49:00;;;;;;;19.10;11.00;;;18.00;99.90;;;;;;4994800;28;20845;-70
2023/10/02 07:51:30;;;;;;;12.83;9.40;;;18.20;99.90;;;;;;4996832;28;20506;-70
2023/10/02 07:53:59;;;;;;;15.60;10.07;;;18.30;99.90;;;;;;5014782;28;20774;-70
2023/10/02 07:56:27;;;;;;;14.90;10.27;;;18.30;99.90;;;;;;5014151;28;21008;-70
2023/10/02 07:58:55;;;;;;;14.60;10.10;;;18.50;99.90;;;;;;5014311;28;20431;-70
2023/10/02 08:01:27;;;;;;;14.80;10.40;;;18.60;99.90;;;;;;5013185;28;20395;-72
2023/10/02 08:03:55;;;;;;;16.00;9.77;;;18.70;99.90;;;;;;4994479;28;20538;-71
2023/10/02 08:11:50;;;;;;;17.00;12.17;;;18.40;99.90;;;;;;4998326;28;20831;-71
2023/10/02 08:14:38;;;;;;;17.47;10.87;;;18.30;99.90;;;;;;5014229;28;20412;-71
2023/10/02 08:17:27;;;;;;;16.90;11.53;;;18.30;99.90;;;;;;5014128;28;20380;-71
2023/10/02 08:19:58;;;;;;;14.47;10.33;;;18.40;99.90;;;;;;5012504;28;20419;-69
2023/10/02 08:22:27;;;;;;;22.67;11.20;;;18.40;99.90;;;;;;5003045;28;20974;-70
2023/10/02 08:24:55;;;;;;;15.70;10.90;;;18.40;99.90;;;;;;4993331;28;20419;-70
2023/10/02 08:27:21;;;;;;;16.63;10.77;;;18.40;99.90;;;;;;4994386;28;20404;-69
2023/10/02 08:29:47;;;;;;;16.83;10.37;;;18.60;99.90;;;;;;4993731;28;20438;-69
2023/10/02 08:32:12;;;;;;;16.77;11.00;;;18.70;99.90;;;;;;5001666;28;20219;-71
2023/10/02 08:34:38;;;;;;;16.47;10.33;;;18.70;99.90;;;;;;5013382;28;20164;-70
2023/10/02 08:37:09;;;;;;;16.97;11.10;;;18.80;99.90;;;;;;5013418;28;20184;-70
2023/10/02 08:39:36;;;;;;;17.90;12.43;;;18.90;99.90;;;;;;5013456;28;20261;-69
2023/10/02 08:42:09;;;;;;;17.30;11.87;;;18.90;99.90;;;;;;5007807;28;20997;-70
2023/10/02 08:44:40;;;;;;;20.67;11.77;;;18.90;99.90;;;;;;4994053;28;20388;-69
2023/10/02 08:47:12;;;;;;;16.37;10.67;;;19.00;99.90;;;;;;4993791;28;20392;-70
2023/10/02 08:49:41;;;;;;;20.07;10.60;;;19.10;99.90;;;;;;4993865;28;20938;-70
2023/10/02 08:52:13;;;;;;;17.63;10.63;;;19.20;99.90;;;;;;5000294;28;20846;-69
2023/10/02 08:54:41;;;;;;;18.43;10.40;;;19.20;99.90;;;;;;5013991;28;20430;-69
2023/10/02 08:57:12;;;;;;;15.17;9.70;;;19.40;99.90;;;;;;5013187;28;20410;-70
2023/10/02 08:59:38;;;;;;;15.60;9.60;;;19.60;99.90;;;;;;5011920;28;20989;-69
2023/10/02 09:02:14;;;;;;;15.40;10.53;;;19.70;99.90;;;;;;5007257;28;20431;-70
2023/10/02 09:05:00;;;;;;;15.83;10.03;;;19.80;99.90;;;;;;4993980;28;20887;-69
2023/10/02 09:10:28;;;;;;;18.00;10.53;;;20.10;99.90;;;;;;4995758;28;20837;-71
2023/10/02 09:13:24;;;;;;;15.00;9.73;;;20.20;99.90;;;;;;5005851;28;20442;-71
2023/10/02 09:15:53;;;;;;;15.90;10.67;;;20.40;99.90;;;;;;5013395;28;20517;-70
2023/10/02 09:21:19;;;;;;;17.67;10.80;;;20.60;99.90;;;;;;5013270;28;20407;-71
2023/10/02 09:23:51;;;;;;;16.47;11.37;;;20.60;99.90;;;;;;4994014;28;20416;-70
2023/10/02 09:26:23;;;;;;;18.37;10.27;;;20.80;99.90;;;;;;5007653;28;20423;-70
2023/10/02 09:28:59;;;;;;;17.70;10.60;;;20.90;99.90;;;;;;5013508;28;20454;-70
2023/10/02 09:31:30;;;;;;;14.90;10.20;;;21.00;99.90;;;;;;5012470;28;20427;-71
2023/10/02 09:33:56;;;;;;;15.57;10.87;;;21.10;99.90;;;;;;4993720;28;20462;-71
2023/10/02 09:36:36;;;;;;;17.70;10.47;;;21.20;99.90;;;;;;4992069;28;20420;-71
2023/10/02 09:39:31;;;;;;;16.70;10.90;;;21.30;99.90;;;;;;4992927;28;20442;-70
2023/10/02 09:41:54;;;;;;;15.27;9.67;;;21.50;99.90;;;;;;4995219;28;20411;-70
2023/10/02 09:44:22;;;;;;;14.60;9.70;;;21.80;99.90;;;;;;5012875;28;20826;-71
2023/10/02 09:46:51;;;;;;;13.70;10.40;;;21.80;99.90;;;;;;5013112;28;20501;-69
2023/10/02 09:49:24;;;;;;;16.97;10.60;;;21.90;99.90;;;;;;5013011;28;20440;-69
2023/10/02 09:52:11;;;;;;;15.50;10.17;;;22.00;99.90;;;;;;5009150;28;20446;-71
2023/10/02 09:55:07;;;;;;;16.33;10.80;;;22.00;99.90;;;;;;4993583;28;20812;-70
2023/10/02 09:57:49;;;;;;;15.30;10.53;;;21.90;99.90;;;;;;4990145;28;20415;-70
2023/10/02 10:00:36;;;;;;;16.33;10.00;;;22.00;99.90;;;;;;4993146;28;20439;-71
2023/10/02 10:03:23;;;;;;;16.33;11.10;;;22.20;99.90;;;;;;5006188;28;20461;-70
2023/10/02 10:06:08;;;;;;;14.30;9.97;;;22.30;99.90;;;;;;5012507;28;20740;-70
2023/10/02 10:11:40;;;;;;;13.20;9.43;;;22.60;99.90;;;;;;5010818;28;20461;-70
2023/10/02 10:14:37;;;;;;;13.37;10.00;;;22.60;99.90;;;;;;4992770;28;20515;-69
2023/10/02 10:17:49;;;;;;;18.60;10.70;;;22.80;99.90;;;;;;4992982;28;20380;-70
2023/10/02 10:20:25;;;;;;;18.67;11.07;;;22.90;99.90;;;;;;4992855;28;20431;-71
2023/10/02 10:22:56;;;;;;;16.90;10.70;;;23.00;99.90;;;;;;5004245;28;20767;-69
2023/10/02 10:28:09;;;;;;;14.77;10.37;;;23.20;99.90;;;;;;5012661;28;20434;-70
2023/10/02 10:33:15;;;;;;;13.20;9.63;;;23.70;99.90;;;;;;4999513;28;20439;-71
2023/10/02 10:35:49;;;;;;;15.40;10.13;;;23.80;99.90;;;;;;4992654;28;20515;-70
2023/10/02 10:38:21;;;;;;;20.07;10.87;;;23.90;99.90;;;;;;4992638;28;20423;-71
2023/10/02 10:40:50;;;;;;;15.47;10.43;;;24.10;99.90;;;;;;4993523;28;20427;-70
2023/10/02 10:43:21;;;;;;;15.83;10.47;;;24.40;99.90;;;;;;5008057;28;20403;-69
2023/10/02 10:45:51;;;;;;;16.80;10.47;;;24.50;99.90;;;;;;5015669;28;20874;-70
2023/10/02 10:48:22;;;;;;;17.07;11.23;;;24.60;99.90;;;;;;5015981;28;20488;-70
2023/10/02 10:50:57;;;;;;;17.20;11.80;;;24.80;99.90;;;;;;5015822;28;20741;-70
2023/10/02 10:53:29;;;;;;;16.43;10.80;;;24.90;99.90;;;;;;5000729;28;20537;-70
2023/10/02 10:56:16;;;;;;;16.00;11.60;;;25.10;99.90;;;;;;4996429;28;20415;-70
2023/10/02 10:58:44;;;;;;;17.20;11.90;;;25.20;99.90;;;;;;4996398;28;20494;-70
2023/10/02 11:01:13;;;;;;;16.23;10.77;;;25.60;99.90;;;;;;4998114;28;20874;-71
2023/10/02 11:03:39;;;;;;;19.00;12.27;;;25.90;99.30;;;;;;5012516;28;20411;-69
2023/10/02 11:06:10;;;;;;;19.17;12.10;;;27.10;97.20;;;;;;5011406;28;20428;-72
2023/10/02 11:08:40;;;;;;;14.67;11.33;;;28.20;95.30;;;;;;5015301;28;20438;-69
2023/10/02 11:11:19;;;;;;;18.10;11.47;;;28.90;93.30;;;;;;5015065;28;20407;-71
2023/10/02 11:14:00;;;;;;;16.50;11.60;;;29.80;92.10;;;;;;5015396;28;20398;-69
2023/10/02 11:16:31;;;;;;;16.20;11.53;;;30.90;88.00;;;;;;5011495;28;20874;-70
2023/10/02 11:19:55;;;;;;;15.70;11.77;;;31.10;85.20;;;;;;4995516;28;20415;-70
2023/10/02 11:22:20;;;;;;;15.43;11.43;;;31.00;84.50;;;;;;4992390;28;20725;-70
2023/10/02 11:24:52;;;;;;;20.93;12.37;;;32.20;80.50;;;;;;4996100;28;20383;-71
2023/10/02 11:27:19;;;;;;;20.67;12.60;;;32.50;76.50;;;;;;5005432;28;20403;-71
2023/10/02 11:30:01;;;;;;;15.50;11.70;;;32.20;76.40;;;;;;5016258;28;20407;-71
2023/10/02 11:32:45;;;;;;;18.07;13.37;;;32.60;74.50;;;;;;5015890;28;20596;-72
2023/10/02 11:35:11;;;;;;;17.80;12.93;;;32.50;72.70;;;;;;5000269;28;20422;-70
2023/10/02 11:37:48;;;;;;;21.70;13.43;;;33.20;70.60;;;;;;5005617;28;20403;-69
2023/10/02 11:40:14;;;;;;;18.10;13.67;;;32.70;70.90;;;;;;5014798;28;20282;-70
2023/10/02 11:42:40;;;;;;;18.40;13.20;;;32.20;71.00;;;;;;5015052;28;20406;-69
2023/10/02 11:45:07;;;;;;;18.10;13.47;;;31.90;71.60;;;;;;5014550;28;20804;-70
2023/10/02 11:47:33;;;;;;;23.53;14.70;;;32.60;70.50;;;;;;5003284;28;20911;-70
2023/10/02 11:49:59;;;;;;;18.70;13.93;;;33.20;67.80;;;;;;4994783;28;20419;-70
2023/10/02 11:52:25;;;;;;;17.67;13.80;;;33.60;66.80;;;;;;4994903;28;20296;-69
2023/10/02 11:54:51;;;;;;;20.80;14.50;;;33.90;63.10;;;;;;4994773;28;20530;-70
2023/10/02 11:57:16;;;;;;;21.63;14.40;;;33.30;63.60;;;;;;5003609;28;20168;-71
2023/10/02 11:59:45;;;;;;;21.23;14.23;;;33.60;62.30;;;;;;5014207;28;20219;-70
2023/10/02 12:02:11;;;;;;;19.43;14.07;;;33.40;62.30;;;;;;5014343;28;20241;-70
2023/10/02 12:04:38;;;;;;;23.93;16.10;;;34.70;59.80;;;;;;5014034;28;20482;-70
2023/10/02 12:07:04;;;;;;;23.30;15.53;;;35.00;57.70;;;;;;5007470;28;20655;-70
2023/10/02 12:09:32;;;;;;;16.63;13.80;;;34.50;57.20;;;;;;4995002;28;20463;-70
2023/10/02 12:11:58;;;;;;;19.90;14.80;;;34.20;59.00;;;;;;4994270;28;20498;-70
2023/10/02 12:14:29;;;;;;;19.03;14.80;;;35.10;57.00;;;;;;4994476;28;20432;-71
2023/10/02 12:16:57;;;;;;;20.23;15.17;;;;;;;;;;5000267;28;20161;-71
2023/10/02 12:19:24;;;;;;;27.10;15.30;;;;;;;;;;5014063;28;20501;-70
2023/10/02 12:21:51;;;;;;;23.87;16.97;;;;;;;;;;5013912;28;20403;-71
2023/10/02 12:24:17;;;;;;;19.90;15.00;;;;;;;;;;5014444;28;20773;-71
2023/10/02 12:26:43;;;;;;;23.20;15.50;;;;;;;;;;5010011;28;20408;-71
2023/10/02 12:29:10;;;;;;;20.17;15.03;;;;;;;;;;4994334;28;20430;-71
2023/10/02 12:31:36;;;;;;;25.07;17.10;;;;;;;;;;4994005;28;20517;-71
2023/10/02 12:34:03;;;;;;;22.80;16.73;;;;;;;;;;4994670;28;21057;-71
2023/10/02 12:36:29;;;;;;;22.67;16.43;;;;;;;;;;4996641;28;20396;-71
2023/10/02 12:38:55;;;;;;;23.30;16.13;;;;;;;;;;5013689;28;20422;-71
2023/10/02 12:41:22;;;;;;;21.50;15.90;;;;;;;;;;5013887;28;20411;-70
2023/10/02 12:43:56;;;;;;;23.03;17.30;;;;;;;;;;5013302;28;20411;-71
2023/10/02 12:46:22;;;;;;;25.30;17.67;;;;;;;;;;5012954;28;20760;-71
2023/10/02 12:48:48;;;;;;;24.23;18.33;;;;;;;;;;4994129;28;20451;-72
2023/10/02 12:51:15;;;;;;;26.00;18.10;;;;;;;;;;4993914;28;20414;-71
2023/10/02 12:53:45;;;;;;;22.90;16.23;;;;;;;;;;4993752;28;20459;-70
2023/10/02 12:56:15;;;;;;;20.17;16.30;;;;;;;;;;4994233;28;20479;-71
2023/10/02 12:58:41;;;;;;;24.30;15.47;;;;;;;;;;5009668;28;20948;-70
2023/10/02 13:01:13;;;;;;;21.17;16.17;;;;;;;;;;5013496;28;20391;-71
2023/10/02 13:03:39;;;;;;;22.40;15.90;;;;;;;;;;5013722;28;20757;-70
2023/10/02 13:06:05;;;;;;;22.03;16.53;;;;;;;;;;5012551;28;20403;-72
2023/10/02 13:08:32;;;;;;;24.47;17.10;;;;;;;;;;4995297;28;20447;-71
2023/10/02 13:10:59;;;;;;;20.80;16.73;;;;;;;;;;4994053;28;20523;-71
2023/10/02 13:13:25;;;;;;;23.77;17.03;;;;;;;;;;4993758;28;20470;-71
2023/10/02 13:15:51;;;;;;;24.43;18.20;;;;;;;;;;4993642;28;20392;-70
2023/10/02 13:18:18;;;;;;;23.03;16.10;;;;;;;;;;5009492;28;20561;-71
2023/10/02 13:20:44;;;;;;;26.53;17.07;;;;;;;;;;5013302;28;20754;-70
2023/10/02 13:23:14;;;;;;;26.23;18.77;;;;;;;;;;5013145;28;20764;-71
2023/10/02 13:25:42;;;;;;;22.53;16.90;;;;;;;;;;5013136;28;20799;-70
2023/10/02 13:28:11;;;;;;;23.17;17.53;;;;;;;;;;4998110;28;20446;-72
2023/10/02 13:30:38;;;;;;;23.27;17.07;;;;;;;;;;4993495;28;20404;-71
2023/10/02 13:33:04;;;;;;;25.53;16.80;;;;;;;;;;4993497;28;20538;-71
2023/10/02 13:35:32;;;;;;;21.23;17.37;;;;;;;;;;4993541;28;20776;-74
2023/10/02 13:38:00;;;;;;;21.83;16.27;;;;;;;;;;4994000;28;20400;-69
2023/10/02 13:40:31;;;;;;;25.50;18.63;;;;;;;;;;4993150;28;20929;-72
2023/10/02 13:42:57;;;;;;;25.00;18.40;;;;;;;;;;4992994;28;20389;-71
2023/10/02 13:45:24;;;;;;;23.67;18.37;;;;;;;;;;4992715;28;20419;-71
2023/10/02 13:47:54;;;;;;;25.03;17.20;;;;;;;;;;5004889;28;20446;-71
2023/10/02 13:50:21;;;;;;;21.07;16.17;;;;;;;;;;5012984;28;20438;-71
2023/10/02 13:52:51;;;;;;;22.17;16.57;;;;;;;;;;5012950;28;20461;-71
2023/10/02 13:55:19;;;;;;;21.53;16.77;;;38.40;41.20;;;;;;5012783;28;20390;-72
2023/10/02 13:57:49;;;;;;;21.00;16.67;;;38.40;41.90;;;;;;5001479;28;20416;-71
2023/10/02 14:00:20;;;;;;;24.00;17.20;;;37.50;42.80;;;;;;4992892;28;20482;-72
2023/10/02 14:02:51;;;;;;;23.73;17.10;;;37.90;42.00;;;;;;4993412;28;20411;-71